Fairpartner — PHEC — position and weather

sailwx.info

Track history (hours):
 
Tides and Currents Weather Stations Pressure Air Temp Water Temp Dewpoint Dewpoint Depression Visibility Wind Speed Wind Dir Waves Ship Positions

Fairpartner

Last reported at 2016-Aug-25 21:29 UTC. Time now 2016-Aug-25 22:03 UTC.
Position N 01°15' E 103°49'.

Length 143 m; beam 27 m.

Type: Cargo ship. MMSI: 246466992.

Date/timePositionNaut miles runAvg speedWind from/ knotsBaromVisibWave heightAir tempDewpointWater temp
2016-Aug-25 21:29N 01°15' E 103°49'0 0.0
2016-Aug-25 20:34N 01°15' E 103°49'0 0.0
2016-Aug-25 19:33N 01°15' E 103°49'0 0.0
2016-Aug-25 18:33N 01°15' E 103°49'0 0.0
2016-Aug-25 17:33N 01°15' E 103°49'0 0.0
2016-Aug-25 16:33N 01°15' E 103°49'0 0.0
2016-Aug-25 15:31N 01°15' E 103°49'0 0.0
2016-Aug-25 14:34N 01°15' E 103°49'0 0.0
2016-Aug-25 13:31N 01°15' E 103°49'0 0.0
2016-Aug-25 12:33N 01°15' E 103°49'0 0.0
2016-Aug-25 11:34N 01°15' E 103°49'1 0.9
2016-Aug-25 10:33N 01°15' E 103°48'9 7.4
2016-Aug-25 09:20N 01°16' E 103°39'2 0.4
2016-Aug-25 03:10N 01°18' E 103°40'0 0.0
2016-Aug-25 02:21N 01°18' E 103°40'0 0.0
2016-Aug-24 10:21N 01°18' E 103°40'0 0.0
2016-Aug-24 08:32N 01°18' E 103°40'1 0.4
2016-Aug-24 06:33N 01°18' E 103°41'5 2.3
2016-Aug-24 04:31N 01°13' E 103°39'0 0.0
2016-Aug-24 03:34N 01°13' E 103°39'0 0.1
2016-Aug-24 02:27N 01°13' E 103°39'6 7.1
2016-Aug-24 01:32N 01°11' E 103°33'  
Track history (hours):
 
Tides and Currents Weather Stations Pressure Air Temp Water Temp Dewpoint Dewpoint Depression Visibility Wind Speed Wind Dir Waves Ship Positions

Fairpartner

Last reported at 2016-Aug-25 21:29 UTC. Time now 2016-Aug-25 22:03 UTC.
Position N 01°15' E 103°49'.

Length 143 m; beam 27 m.

Type: Cargo ship. MMSI: 246466992.

Date/timePositionNaut miles runAvg speedWind from/ knotsBaromVisibWave heightAir tempDewpointWater temp
2016-Aug-25 21:29N 01°15' E 103°49'0 0.0
2016-Aug-25 20:34N 01°15' E 103°49'0 0.0
2016-Aug-25 19:33N 01°15' E 103°49'0 0.0
2016-Aug-25 18:33N 01°15' E 103°49'0 0.0
2016-Aug-25 17:33N 01°15' E 103°49'0 0.0
2016-Aug-25 16:33N 01°15' E 103°49'0 0.0
2016-Aug-25 15:31N 01°15' E 103°49'0 0.0
2016-Aug-25 14:34N 01°15' E 103°49'0 0.0
2016-Aug-25 13:31N 01°15' E 103°49'0 0.0
2016-Aug-25 12:33N 01°15' E 103°49'0 0.0
2016-Aug-25 11:34N 01°15' E 103°49'1 0.9
2016-Aug-25 10:33N 01°15' E 103°48'9 7.4
2016-Aug-25 09:20N 01°16' E 103°39'2 0.4
2016-Aug-25 03:10N 01°18' E 103°40'0 0.0
2016-Aug-25 02:21N 01°18' E 103°40'0 0.0
2016-Aug-24 10:21N 01°18' E 103°40'0 0.0
2016-Aug-24 08:32N 01°18' E 103°40'1 0.4
2016-Aug-24 06:33N 01°18' E 103°41'5 2.3
2016-Aug-24 04:31N 01°13' E 103°39'0 0.0
2016-Aug-24 03:34N 01°13' E 103°39'0 0.1
2016-Aug-24 02:27N 01°13' E 103°39'6 7.1
2016-Aug-24 01:32N 01°11' E 103°33'  

Dump ship's entire track history